Time;durP1;ratioP1;P1;durP2;ratioP2;P2;SDS_P1;SDS_P2;PMS_P1;PMS_P2;Temp;Humidity;BMP_temperature;BMP_pressure;BME280_temperature;BME280_humidity;BME280_pressure;Samples;Min_cycle;Max_cycle;Signal;HPM_P1;HPM_P2
2023/01/29 00:00:52;;;;;;;9.45;7.00;;;;;;;-144.31;100.00;58022.63;5014635;28;20033;-54
2023/01/29 00:04:16;;;;;;;11.73;6.65;;;;;;;-144.31;100.00;58022.63;5019244;28;20107;-57
2023/01/29 00:07:40;;;;;;;13.95;7.95;;;;;;;-144.31;100.00;58022.63;5016142;28;20406;-54
2023/01/29 00:11:06;;;;;;;12.85;7.30;;;;;;;-144.31;100.00;58022.63;5029718;28;20064;-52
2023/01/29 00:14:30;;;;;;;11.68;7.28;;;;;;;-144.31;100.00;58022.63;5013407;28;20053;-57
2023/01/29 00:17:54;;;;;;;11.82;7.25;;;;;;;-144.31;100.00;58022.63;5013464;28;20041;-59
2023/01/29 00:21:19;;;;;;;10.65;6.63;;;;;;;-144.31;100.00;58022.63;5014249;28;20050;-57
2023/01/29 00:24:43;;;;;;;12.55;7.57;;;;;;;-144.31;100.00;58022.63;5013120;28;20073;-55
2023/01/29 00:28:07;;;;;;;10.27;6.78;;;;;;;-144.31;100.00;58022.63;5015202;28;20041;-58
2023/01/29 00:31:31;;;;;;;12.85;6.95;;;;;;;-144.31;100.00;58022.63;5012926;28;20046;-56
2023/01/29 00:34:55;;;;;;;11.73;7.10;;;;;;;-144.31;100.00;58022.63;5014963;28;20037;-56
2023/01/29 00:38:20;;;;;;;12.30;7.32;;;;;;;-144.31;100.00;58022.63;5016846;28;20104;-55
2023/01/29 00:45:26;;;;;;;11.73;7.35;;;;;;;-144.31;100.00;58022.63;5013912;28;20033;-55
2023/01/29 00:48:50;;;;;;;12.48;7.20;;;;;;;-144.31;100.00;58022.63;5015620;28;20041;-63
2023/01/29 00:52:23;;;;;;;15.50;7.93;;;;;;;-144.31;100.00;58022.63;5014480;28;20725;-54
2023/01/29 00:55:47;;;;;;;13.02;7.55;;;;;;;-144.31;100.00;58022.63;5012947;28;20090;-59
2023/01/29 00:59:11;;;;;;;14.82;7.93;;;;;;;-144.31;100.00;58022.63;5013518;28;20220;-58
2023/01/29 01:06:17;;;;;;;11.07;6.72;;;;;;;-144.31;100.00;58022.63;5017539;28;20383;-56
2023/01/29 01:13:25;;;;;;;11.40;7.40;;;;;;;-144.31;100.00;58022.63;5010680;28;20407;-55
2023/01/29 01:16:49;;;;;;;13.43;7.10;;;;;;;-144.31;100.00;58022.63;5014195;28;20034;-59
2023/01/29 01:20:14;;;;;;;10.57;6.78;;;;;;;-144.31;100.00;58022.63;5012864;28;20056;-60
2023/01/29 01:23:38;;;;;;;10.02;6.57;;;;;;;-144.31;100.00;58022.63;5030100;28;20406;-56
2023/01/29 01:27:05;;;;;;;11.35;6.57;;;;;;;-144.31;100.00;58022.63;5013013;28;20502;-52
2023/01/29 01:30:31;;;;;;;11.18;7.20;;;;;;;-144.31;100.00;58022.63;5011906;28;20042;-55
2023/01/29 01:33:56;;;;;;;;;;;;;;;-144.31;100.00;58022.63;5023891;28;20065;-56
2023/01/29 01:37:20;;;;;;;13.38;6.90;;;;;;;-144.31;100.00;58022.63;5006759;28;19921;-54
2023/01/29 01:40:45;;;;;;;11.73;7.65;;;;;;;-144.31;100.00;58022.63;5020126;28;20084;-54
2023/01/29 01:44:28;;;;;;;12.63;8.05;;;;;;;-144.31;100.00;58022.63;5018869;28;20049;-54
2023/01/29 01:47:55;;;;;;;13.45;7.80;;;;;;;-144.31;100.00;58022.63;5011615;28;20090;-55
2023/01/29 01:51:44;;;;;;;12.65;7.95;;;;;;;-144.31;100.00;58022.63;5013723;28;20525;-57
2023/01/29 01:55:12;;;;;;;11.50;7.32;;;;;;;-144.31;100.00;58022.63;5017762;28;20462;-58
2023/01/29 01:58:39;;;;;;;13.45;8.20;;;;;;;-144.31;100.00;58022.63;5017727;28;20041;-54
2023/01/29 02:09:38;;;;;;;11.05;6.97;;;;;;;-144.31;100.00;58022.63;5017541;28;20058;-52
2023/01/29 02:13:05;;;;;;;12.13;6.47;;;;;;;-144.31;100.00;58022.63;5017743;28;20160;-53
2023/01/29 02:16:29;;;;;;;;;;;;;;;-144.31;100.00;58022.63;5020356;28;20087;-59
2023/01/29 02:20:03;;;;;;;9.55;6.63;;;;;;;-144.31;100.00;58022.63;5015375;28;19940;-60
2023/01/29 02:23:51;;;;;;;11.23;6.60;;;;;;;-144.31;100.00;58022.63;5012734;28;20121;-54
2023/01/29 02:27:47;;;;;;;8.90;6.13;;;;;;;-144.31;100.00;58022.63;5023610;28;20561;-55
2023/01/29 02:31:17;;;;;;;11.13;6.97;;;;;;;-144.31;100.00;58022.63;5015688;28;20026;-54
2023/01/29 02:38:49;;;;;;;12.48;6.88;;;;;;;-144.31;100.00;58022.63;5023671;28;20048;-57
2023/01/29 02:42:21;;;;;;;11.65;7.05;;;;;;;-144.31;100.00;58022.63;5025141;28;20057;-57
2023/01/29 02:45:55;;;;;;;11.93;6.72;;;;;;;-144.31;100.00;58022.63;5018938;28;20057;-58
2023/01/29 02:49:30;;;;;;;12.88;7.70;;;;;;;-144.31;100.00;58022.63;5016187;28;20133;-53
2023/01/29 02:53:36;;;;;;;11.57;7.88;;;;;;;-144.31;100.00;58022.63;5016169;28;20034;-57
2023/01/29 02:57:15;;;;;;;14.05;7.93;;;;;;;-144.31;100.00;58022.63;4997712;28;20050;-54
2023/01/29 03:00:44;;;;;;;11.73;7.20;;;;;;;-144.31;100.00;58022.63;5015474;28;20163;-53
2023/01/29 03:04:21;;;;;;;13.48;8.68;;;;;;;-144.31;100.00;58022.63;5019195;28;20053;-52
2023/01/29 03:07:53;;;;;;;11.43;7.32;;;;;;;-144.31;100.00;58022.63;5019814;28;20046;-52
2023/01/29 03:11:51;;;;;;;11.93;7.72;;;;;;;-144.31;100.00;58022.63;5032175;28;20045;-55
2023/01/29 03:15:41;;;;;;;13.45;8.00;;;;;;;-144.31;100.00;58022.63;5009478;28;20095;-56
2023/01/29 03:19:33;;;;;;;11.10;7.88;;;;;;;-144.31;100.00;58022.63;5006242;28;20074;-57
2023/01/29 03:23:11;;;;;;;10.82;7.38;;;;;;;-144.31;100.00;58022.63;5026269;28;20045;-56
2023/01/29 03:34:27;;;;;;;10.35;6.68;;;;;;;-144.31;100.00;58022.63;5013292;28;20168;-55
2023/01/29 03:38:18;;;;;;;12.20;6.70;;;;;;;-144.31;100.00;58022.63;5016722;28;20069;-55
2023/01/29 03:41:53;;;;;;;11.10;7.03;;;;;;;-144.31;100.00;58022.63;5021669;28;20474;-55
2023/01/29 03:45:41;;;;;;;11.27;7.15;;;;;;;-144.31;100.00;58022.63;5024924;28;20041;-57
2023/01/29 03:49:13;;;;;;;11.13;6.85;;;;;;;-144.31;100.00;58022.63;5016425;28;20512;-58
2023/01/29 03:52:59;;;;;;;11.27;7.55;;;;;;;-144.31;100.00;58022.63;5022762;28;20075;-55
2023/01/29 03:56:50;;;;;;;14.32;7.22;;;;;;;-144.31;100.00;58022.63;5015028;28;20833;-58
2023/01/29 04:00:43;;;;;;;12.32;7.68;;;;;;;-144.31;100.00;58022.63;5017127;28;20073;-59
2023/01/29 04:04:13;;;;;;;10.55;7.15;;;;;;;-144.31;100.00;58022.63;5022338;28;20037;-57
2023/01/29 04:07:44;;;;;;;10.00;7.20;;;;;;;-144.31;100.00;58022.63;5017662;28;20483;-54
2023/01/29 04:11:16;;;;;;;13.13;7.63;;;;;;;-144.31;100.00;58022.63;5014395;28;20633;-58
2023/01/29 04:14:41;;;;;;;11.43;7.38;;;;;;;-144.31;100.00;58022.63;5010726;28;20069;-59
2023/01/29 04:18:17;;;;;;;12.68;7.22;;;;;;;-144.31;100.00;58022.63;5002408;28;20130;-54
2023/01/29 04:22:09;;;;;;;10.80;6.97;;;;;;;-144.31;100.00;58022.63;5011577;28;20837;-57
2023/01/29 04:25:43;;;;;;;12.20;7.47;;;;;;;-144.31;100.00;58022.63;5032709;28;20096;-58
2023/01/29 04:29:36;;;;;;;12.33;7.73;;;;;;;-144.31;100.00;58022.63;5017543;28;20466;-57
2023/01/29 04:33:10;;;;;;;12.55;8.18;;;;;;;-144.31;100.00;58022.63;5024720;28;20389;-57
2023/01/29 04:37:06;;;;;;;11.27;7.18;;;;;;;-144.31;100.00;58022.63;5011830;28;20157;-57
2023/01/29 04:40:47;;;;;;;9.27;6.13;;;;;;;-144.31;100.00;58022.63;5017958;28;20092;-54
2023/01/29 04:44:42;;;;;;;10.15;6.28;;;;;;;-144.31;100.00;58022.63;4994955;28;20059;-58
2023/01/29 04:48:09;;;;;;;;;;;;;;;-144.31;100.00;58022.63;5020968;28;20072;-57
2023/01/29 04:51:51;;;;;;;11.50;6.82;;;;;;;-144.31;100.00;58022.63;5014456;28;20332;-55
2023/01/29 04:55:35;;;;;;;11.05;6.75;;;;;;;-144.31;100.00;58022.63;5017730;28;20048;-55
2023/01/29 04:59:12;;;;;;;10.27;6.55;;;;;;;-144.31;100.00;58022.63;5017292;28;20046;-54
2023/01/29 05:02:38;;;;;;;10.45;6.93;;;;;;;-144.31;100.00;58022.63;5014076;28;20048;-58
2023/01/29 05:06:03;;;;;;;10.18;6.80;;;;;;;-144.31;100.00;58022.63;5012054;28;20042;-56
2023/01/29 05:09:28;;;;;;;11.77;7.43;;;;;;;-144.31;100.00;58022.63;5026840;28;20478;-51
2023/01/29 05:12:59;;;;;;;13.93;7.70;;;;;;;-144.31;100.00;58022.63;5014889;28;20490;-49
2023/01/29 05:16:27;;;;;;;10.73;6.93;;;;;;;-144.31;100.00;58022.63;5014210;28;20282;-58
2023/01/29 05:19:51;;;;;;;13.50;7.50;;;;;;;-144.31;100.00;58022.63;5016348;28;20103;-55
2023/01/29 05:23:17;;;;;;;10.82;7.00;;;;;;;-144.31;100.00;58022.63;5012224;28;20045;-58
2023/01/29 05:30:24;;;;;;;10.10;6.43;;;;;;;-144.31;100.00;58022.63;5013401;28;20120;-56
2023/01/29 05:33:47;;;;;;;12.05;7.60;;;;;;;-144.31;100.00;58022.63;5011711;28;20040;-56
2023/01/29 05:37:11;;;;;;;9.48;6.72;;;;;;;-144.31;100.00;58022.63;5013144;28;20044;-54
2023/01/29 05:40:35;;;;;;;10.70;6.78;;;;;;;-144.31;100.00;58022.63;5018277;28;20095;-53
2023/01/29 05:43:59;;;;;;;10.35;6.50;;;;;;;-144.31;100.00;58022.63;5011251;28;20396;-55
2023/01/29 05:47:23;;;;;;;10.40;6.15;;;;;;;-144.31;100.00;58022.63;5020529;28;20449;-57
2023/01/29 05:50:47;;;;;;;11.63;6.78;;;;;;;-144.31;100.00;58022.63;5010640;28;20145;-53
2023/01/29 05:54:11;;;;;;;12.60;7.50;;;;;;;-144.31;100.00;58022.63;5013418;28;20033;-57
2023/01/29 05:57:35;;;;;;;12.00;7.43;;;;;;;-144.31;100.00;58022.63;5027622;28;20049;-53
2023/01/29 06:01:13;;;;;;;10.52;7.18;;;;;;;-144.31;100.00;58022.63;5014211;28;20037;-54
2023/01/29 06:04:37;;;;;;;10.55;6.95;;;;;;;-144.31;100.00;58022.63;5010639;28;20136;-54
2023/01/29 06:08:01;;;;;;;10.23;7.07;;;;;;;-144.31;100.00;58022.63;5013219;28;20038;-56
2023/01/29 06:11:25;;;;;;;14.00;7.57;;;;;;;-144.31;100.00;58022.63;5013386;28;20038;-54
2023/01/29 06:14:49;;;;;;;10.02;6.70;;;;;;;-144.31;100.00;58022.63;5008724;28;20040;-55
2023/01/29 06:18:16;;;;;;;13.40;7.53;;;;;;;-144.31;100.00;58022.63;5010890;28;20402;-55
2023/01/29 06:21:40;;;;;;;10.38;6.95;;;;;;;-144.31;100.00;58022.63;5013583;28;20044;-55
2023/01/29 06:25:04;;;;;;;13.50;7.20;;;;;;;-144.31;100.00;58022.63;5012050;28;20065;-57
2023/01/29 06:28:28;;;;;;;13.50;7.47;;;;;;;-144.31;100.00;58022.63;5008329;28;20447;-53
2023/01/29 06:31:54;;;;;;;11.00;6.60;;;;;;;-144.31;100.00;58022.63;5011439;28;20073;-57
2023/01/29 06:35:18;;;;;;;12.65;7.97;;;;;;;-144.31;100.00;58022.63;5014457;28;20041;-60
2023/01/29 06:38:42;;;;;;;13.43;8.68;;;;;;;-144.31;100.00;58022.63;5014436;28;20061;-57
2023/01/29 06:42:09;;;;;;;15.93;8.30;;;;;;;-144.31;100.00;58022.63;5010253;28;20521;-57
2023/01/29 06:45:33;;;;;;;13.15;7.93;;;;;;;-144.31;100.00;58022.63;5014352;28;20037;-56
2023/01/29 06:48:59;;;;;;;10.57;6.15;;;;;;;-144.31;100.00;58022.63;5028728;28;20053;-58
2023/01/29 06:52:27;;;;;;;9.77;6.50;;;;;;;-144.31;100.00;58022.63;5010961;28;20145;-58
2023/01/29 06:55:51;;;;;;;11.45;6.75;;;;;;;-144.31;100.00;58022.63;5017067;28;20042;-53
2023/01/29 06:59:15;;;;;;;8.85;5.90;;;;;;;-144.31;100.00;58022.63;5022853;28;20153;-56
2023/01/29 07:02:39;;;;;;;10.70;6.55;;;;;;;-144.31;100.00;58022.63;5016212;28;20402;-56
2023/01/29 07:06:03;;;;;;;9.75;6.63;;;;;;;-144.31;100.00;58022.63;5013675;28;20037;-57
2023/01/29 07:09:27;;;;;;;11.45;6.43;;;;;;;-144.31;100.00;58022.63;5018359;28;20056;-58
2023/01/29 07:12:51;;;;;;;12.95;7.82;;;;;;;-144.31;100.00;58022.63;5019353;28;20034;-57
2023/01/29 07:16:16;;;;;;;14.38;7.20;;;;;;;-144.31;100.00;58022.63;5016220;28;20117;-55
2023/01/29 07:19:40;;;;;;;11.00;6.95;;;;;;;-144.31;100.00;58022.63;5017514;28;20056;-55
2023/01/29 07:23:04;;;;;;;14.10;6.47;;;;;;;-144.31;100.00;58022.63;5013171;28;20037;-56
2023/01/29 07:26:28;;;;;;;10.70;6.82;;;;;;;-144.31;100.00;58022.63;5019160;28;20042;-56
2023/01/29 07:29:52;;;;;;;21.92;10.60;;;;;;;-144.31;100.00;58022.63;5018260;28;20042;-57
2023/01/29 07:33:16;;;;;;;16.95;10.68;;;;;;;-144.31;100.00;58022.63;5015995;28;20183;-58
2023/01/29 07:36:40;;;;;;;19.30;11.15;;;;;;;-144.31;100.00;58022.63;5017184;28;20037;-54
2023/01/29 07:40:10;;;;;;;14.77;8.73;;;;;;;-144.31;100.00;58022.63;5014764;28;20041;-55
2023/01/29 07:43:34;;;;;;;13.95;8.18;;;;;;;-144.31;100.00;58022.63;5014243;28;20128;-55
2023/01/29 07:46:59;;;;;;;11.40;7.70;;;;;;;-144.31;100.00;58022.63;5018448;28;20049;-58
2023/01/29 07:50:24;;;;;;;13.10;8.18;;;;;;;-144.31;100.00;58022.63;5023334;28;20065;-53
2023/01/29 07:53:48;;;;;;;12.50;8.50;;;;;;;-144.31;100.00;58022.63;5018058;28;20224;-59
2023/01/29 07:57:12;;;;;;;13.18;8.27;;;;;;;-144.31;100.00;58022.63;5019062;28;20136;-57
2023/01/29 08:00:36;;;;;;;18.70;8.82;;;;;;;-144.31;100.00;58022.63;5016381;28;20041;-58
2023/01/29 08:04:04;;;;;;;13.55;8.73;;;;;;;-144.31;100.00;58022.63;5016096;28;20148;-57
2023/01/29 08:07:27;;;;;;;15.48;9.07;;;;;;;-144.31;100.00;58022.63;5001488;28;20049;-55
2023/01/29 08:10:51;;;;;;;16.42;9.73;;;;;;;-144.31;100.00;58022.63;5016171;28;20052;-56
2023/01/29 08:14:15;;;;;;;16.30;8.50;;;;;;;-144.31;100.00;58022.63;5015391;28;20128;-54
2023/01/29 08:17:39;;;;;;;14.02;8.45;;;;;;;-144.31;100.00;58022.63;5014193;28;20068;-54
2023/01/29 08:21:04;;;;;;;12.43;8.00;;;;;;;-144.31;100.00;58022.63;5015753;28;20033;-53
2023/01/29 08:24:28;;;;;;;15.40;9.23;;;;;;;-144.31;100.00;58022.63;5012183;28;20081;-52
2023/01/29 08:27:52;;;;;;;18.63;9.20;;;;;;;-144.31;100.00;58022.63;5017624;28;20045;-57
2023/01/29 08:31:19;;;;;;;13.45;8.57;;;;;;;-144.31;100.00;58022.63;5016929;28;20037;-55
2023/01/29 08:34:43;;;;;;;16.55;8.13;;;;;;;-144.31;100.00;58022.63;5022530;28;20064;-57
2023/01/29 08:38:07;;;;;;;13.93;8.20;;;;;;;-144.31;100.00;58022.63;5026769;28;20059;-56
2023/01/29 08:41:32;;;;;;;14.35;8.15;;;;;;;-144.31;100.00;58022.63;5009531;28;20124;-52
2023/01/29 08:44:56;;;;;;;12.45;7.53;;;;;;;-144.31;100.00;58022.63;5013466;28;20053;-54
2023/01/29 08:48:20;;;;;;;13.77;7.05;;;;;;;-144.31;100.00;58022.63;5011920;28;20069;-53
2023/01/29 08:51:44;;;;;;;11.23;7.15;;;;;;;-144.31;100.00;58022.63;5015223;28;20486;-56
2023/01/29 08:55:08;;;;;;;10.85;7.13;;;;;;;-144.31;100.00;58022.63;5016578;28;20080;-56
2023/01/29 08:58:32;;;;;;;12.38;7.13;;;;;;;-144.31;100.00;58022.63;5018284;28;20042;-53
2023/01/29 09:02:03;;;;;;;11.95;7.05;;;;;;;-144.31;100.00;58022.63;5017097;28;20402;-57
2023/01/29 09:05:28;;;;;;;13.00;6.72;;;;;;;-144.31;100.00;58022.63;5015781;28;20254;-59
2023/01/29 09:08:54;;;;;;;9.27;6.60;;;;;;;-144.31;100.00;58022.63;5012536;28;20444;-56
2023/01/29 09:12:18;;;;;;;9.35;6.50;;;;;;;-144.31;100.00;58022.63;5014361;28;20069;-60
2023/01/29 09:15:42;;;;;;;10.32;6.22;;;;;;;-144.31;100.00;58022.63;5000695;28;20422;-58
2023/01/29 09:19:07;;;;;;;9.20;5.80;;;;;;;-144.31;100.00;58022.63;5012099;28;20124;-57
2023/01/29 09:22:31;;;;;;;9.90;5.68;;;;;;;-144.31;100.00;58022.63;5019706;28;20209;-55
2023/01/29 09:25:55;;;;;;;9.93;5.82;;;;;;;-144.31;100.00;58022.63;5021971;28;20037;-55
2023/01/29 09:29:19;;;;;;;9.32;6.32;;;;;;;-144.31;100.00;58022.63;5014574;28;20049;-54
2023/01/29 09:32:43;;;;;;;9.07;6.35;;;;;;;-144.31;100.00;58022.63;5017682;28;20485;-54
2023/01/29 09:36:07;;;;;;;8.77;5.95;;;;;;;-144.31;100.00;58022.63;5010505;28;20029;-56
2023/01/29 09:39:31;;;;;;;10.88;5.93;;;;;;;-144.31;100.00;58022.63;5012843;28;20048;-55
2023/01/29 09:43:04;;;;;;;9.48;6.30;;;;;;;-144.31;100.00;58022.63;5023276;28;20041;-53
2023/01/29 09:46:39;;;;;;;12.52;7.60;;;;;;;-144.31;100.00;58022.63;5017303;28;20046;-59
2023/01/29 09:50:20;;;;;;;11.77;7.23;;;;;;;-144.31;100.00;58022.63;5013133;28;20554;-54
2023/01/29 09:53:53;;;;;;;15.43;7.95;;;;;;;-144.31;100.00;58022.63;5014726;28;20282;-55
2023/01/29 09:57:23;;;;;;;20.25;9.43;;;;;;;-144.31;100.00;58022.63;5013720;28;20056;-58
2023/01/29 10:00:58;;;;;;;14.50;8.95;;;;;;;-144.31;100.00;58022.63;5024452;28;20045;-54
2023/01/29 10:04:27;;;;;;;15.27;7.47;;;;;;;-144.31;100.00;58022.63;5011679;28;20113;-56
2023/01/29 10:08:04;;;;;;;10.57;6.50;;;;;;;-144.31;100.00;58022.63;5013756;28;20037;-58
2023/01/29 10:11:43;;;;;;;10.25;6.38;;;;;;;-144.31;100.00;58022.63;5016878;28;20144;-54
2023/01/29 10:15:27;;;;;;;10.35;6.97;;;;;;;-144.31;100.00;58022.63;5015632;28;20529;-56
2023/01/29 10:19:17;;;;;;;10.80;6.88;;;;;;;-144.31;100.00;58022.63;5026285;28;20100;-56
2023/01/29 10:22:47;;;;;;;11.80;7.47;;;;;;;-144.31;100.00;58022.63;5008337;28;20041;-56
2023/01/29 10:26:13;;;;;;;15.38;7.00;;;;;;;-144.31;100.00;58022.63;5014736;28;20125;-56
2023/01/29 10:29:42;;;;;;;13.45;7.88;;;;;;;-144.31;100.00;58022.63;5016104;28;20037;-54
2023/01/29 10:33:13;;;;;;;12.55;7.15;;;;;;;-144.31;100.00;58022.63;5016067;28;20068;-55
2023/01/29 10:36:41;;;;;;;12.90;6.40;;;;;;;-144.31;100.00;58022.63;5015198;28;20029;-54
2023/01/29 10:40:31;;;;;;;9.38;6.22;;;;;;;-144.31;100.00;58022.63;5015664;28;20034;-57
2023/01/29 10:44:16;;;;;;;15.27;6.57;;;;;;;-144.31;100.00;58022.63;5015223;28;20100;-51
2023/01/29 10:48:36;;;;;;;10.93;7.13;;;;;;;-144.31;100.00;58022.63;5014423;28;20037;-53
2023/01/29 10:52:40;;;;;;;15.60;7.90;;;;;;;-144.31;100.00;58022.63;4996198;28;20053;-52
2023/01/29 10:56:16;;;;;;;13.35;7.53;;;;;;;-144.31;100.00;58022.63;4997695;28;20053;-55
2023/01/29 11:00:03;;;;;;;13.15;7.32;;;;;;;-144.31;100.00;58022.63;5016848;28;20161;-55
2023/01/29 11:03:31;;;;;;;12.65;8.15;;;;;;;-144.31;100.00;58022.63;5015831;28;20042;-57
2023/01/29 11:06:59;;;;;;;13.60;7.32;;;;;;;-144.31;100.00;58022.63;5016060;28;20200;-55
2023/01/29 11:10:24;;;;;;;10.45;7.20;;;;;;;-144.31;100.00;58022.63;5012378;28;20041;-56
2023/01/29 11:13:54;;;;;;;9.57;7.17;;;;;;;-144.31;100.00;58022.63;5012888;28;20046;-56
2023/01/29 11:17:20;;;;;;;12.82;7.60;;;;;;;-144.31;100.00;58022.63;5015113;28;20469;-58
2023/01/29 11:20:45;;;;;;;11.98;7.72;;;;;;;-144.31;100.00;58022.63;5012993;28;20030;-52
2023/01/29 11:24:29;;;;;;;12.85;7.95;;;;;;;-144.31;100.00;58022.63;5014309;28;20044;-59
2023/01/29 11:27:56;;;;;;;10.27;7.65;;;;;;;-144.31;100.00;58022.63;5012018;28;20132;-60
2023/01/29 11:31:35;;;;;;;15.15;8.27;;;;;;;-144.31;100.00;58022.63;5013023;28;20060;-55
2023/01/29 11:35:20;;;;;;;15.52;8.40;;;;;;;-144.31;100.00;58022.63;5012946;28;20046;-57
2023/01/29 11:38:44;;;;;;;14.40;8.45;;;;;;;-144.31;100.00;58022.63;5013609;28;20034;-57
2023/01/29 11:42:19;;;;;;;15.90;8.93;;;;;;;-144.31;100.00;58022.63;5015502;28;20034;-53
2023/01/29 11:45:43;;;;;;;16.85;8.70;;;;;;;-144.31;100.00;58022.63;5012199;28;20061;-55
2023/01/29 11:49:21;;;;;;;12.25;8.18;;;;;;;-144.31;100.00;58022.63;5011532;28;20046;-55
2023/01/29 11:52:49;;;;;;;12.68;8.73;;;;;;;-144.31;100.00;58022.63;5015274;28;20072;-59
2023/01/29 11:56:22;;;;;;;12.98;8.73;;;;;;;-144.31;100.00;58022.63;5015773;28;20034;-60
2023/01/29 11:59:49;;;;;;;11.93;8.50;;;;;;;-144.31;100.00;58022.63;5012990;28;20037;-58
2023/01/29 12:03:34;;;;;;;15.93;10.10;;;;;;;-144.31;100.00;58022.63;5015524;28;20453;-57
2023/01/29 12:07:00;;;;;;;13.67;9.50;;;;;;;-144.31;100.00;58022.63;5013004;28;20053;-60
2023/01/29 12:10:27;;;;;;;14.80;8.98;;;;;;;-144.31;100.00;58022.63;5009317;28;20299;-58
2023/01/29 12:14:02;;;;;;;13.63;9.43;;;;;;;-144.31;100.00;58022.63;5010989;28;20180;-59
2023/01/29 12:18:11;;;;;;;16.73;9.77;;;;;;;-144.31;100.00;58022.63;5012589;28;20073;-57
2023/01/29 12:21:51;;;;;;;13.50;8.98;;;;;;;-144.31;100.00;58022.63;4981415;28;20060;-58
2023/01/29 12:25:39;;;;;;;14.85;10.45;;;;;;;-144.31;100.00;58022.63;5013936;28;20732;-56
2023/01/29 12:29:18;;;;;;;14.25;10.02;;;;;;;-144.31;100.00;58022.63;5014286;28;20040;-59
2023/01/29 12:33:14;;;;;;;15.68;9.73;;;;;;;-144.31;100.00;58022.63;5012033;28;20114;-56
2023/01/29 12:36:54;;;;;;;15.73;9.95;;;;;;;-144.31;100.00;58022.63;5012732;28;20382;-56
2023/01/29 12:40:20;;;;;;;17.50;10.85;;;;;;;-144.31;100.00;58022.63;5012480;28;20037;-55
2023/01/29 12:43:51;;;;;;;15.60;10.98;;;;;;;-144.31;100.00;58022.63;5014349;28;20037;-55
2023/01/29 12:47:24;;;;;;;16.52;10.05;;;;;;;-144.31;100.00;58022.63;5014910;28;20081;-59
2023/01/29 12:50:51;;;;;;;13.80;9.77;;;;;;;-144.31;100.00;58022.63;5016754;28;20034;-56
2023/01/29 12:54:26;;;;;;;17.45;10.93;;;;;;;-144.31;100.00;58022.63;5015193;28;20087;-54
2023/01/29 12:57:58;;;;;;;19.70;11.30;;;;;;;-144.31;100.00;58022.63;5016450;28;20371;-54
2023/01/29 13:01:39;;;;;;;15.68;10.77;;;;;;;-144.31;100.00;58022.63;5015215;28;20045;-56
2023/01/29 13:05:23;;;;;;;18.92;10.95;;;;;;;-144.31;100.00;58022.63;5015482;28;20568;-55
2023/01/29 13:08:52;;;;;;;19.20;11.02;;;;;;;-144.31;100.00;58022.63;5016672;28;20046;-56
2023/01/29 13:12:27;;;;;;;18.17;12.23;;;;;;;-144.31;100.00;58022.63;5015124;28;20680;-54
2023/01/29 13:16:12;;;;;;;14.80;10.40;;;;;;;-144.31;100.00;58022.63;5013760;28;20414;-56
2023/01/29 13:19:44;;;;;;;20.00;10.73;;;;;;;-144.31;100.00;58022.63;5016988;28;20517;-57
2023/01/29 13:23:18;;;;;;;17.08;11.20;;;;;;;-144.31;100.00;58022.63;5010273;28;20712;-57
2023/01/29 13:26:46;;;;;;;15.65;11.07;;;;;;;-144.31;100.00;58022.63;5011335;28;20048;-59
2023/01/29 13:30:30;;;;;;;16.00;11.27;;;;;;;-144.31;100.00;58022.63;5010891;28;20049;-56
2023/01/29 13:34:14;;;;;;;17.90;11.32;;;;;;;-144.31;100.00;58022.63;5009074;28;20048;-58
2023/01/29 13:37:52;;;;;;;19.23;12.30;;;;;;;-144.31;100.00;58022.63;5012009;28;20155;-56
2023/01/29 13:41:19;;;;;;;17.33;10.35;;;;;;;-144.31;100.00;58022.63;5012356;28;20119;-55
2023/01/29 13:44:50;;;;;;;19.00;10.88;;;;;;;-144.31;100.00;58022.63;5011455;28;20116;-54
2023/01/29 13:48:34;;;;;;;18.67;12.13;;;;;;;-144.31;100.00;58022.63;5013372;28;20052;-56
2023/01/29 13:52:15;;;;;;;15.88;10.57;;;;;;;-144.31;100.00;58022.63;5014523;28;20493;-58
2023/01/29 13:55:46;;;;;;;16.88;10.65;;;;;;;-144.31;100.00;58022.63;5010807;28;20069;-54
2023/01/29 13:59:47;;;;;;;21.83;11.27;;;;;;;-144.31;100.00;58022.63;5009046;28;20046;-51
2023/01/29 14:03:44;;;;;;;21.17;11.57;;;;;;;-144.31;100.00;58022.63;5008780;28;20450;-55
2023/01/29 14:07:28;;;;;;;20.40;12.23;;;;;;;-144.31;100.00;58022.63;5012276;28;20084;-55
2023/01/29 14:11:14;;;;;;;20.45;11.40;;;;;;;-144.31;100.00;58022.63;5011951;28;20046;-56
2023/01/29 14:14:55;;;;;;;18.27;11.20;;;;;;;-144.31;100.00;58022.63;5010417;28;20038;-59
2023/01/29 14:18:20;;;;;;;19.90;11.90;;;;;;;-144.31;100.00;58022.63;5009188;28;20100;-56
2023/01/29 14:21:48;;;;;;;19.77;12.03;;;;;;;-144.31;100.00;58022.63;5013076;28;20497;-52
2023/01/29 14:25:21;;;;;;;18.23;11.82;;;;;;;-144.31;100.00;58022.63;5010198;28;20520;-57
2023/01/29 14:28:52;;;;;;;18.90;12.30;;;;;;;-144.31;100.00;58022.63;5013006;28;20564;-54
2023/01/29 14:32:33;;;;;;;18.67;12.13;;;;;;;-144.31;100.00;58022.63;5011370;28;20095;-55
2023/01/29 14:36:03;;;;;;;21.10;11.07;;;;;;;-144.31;100.00;58022.63;5011538;28;20439;-53
2023/01/29 14:39:33;;;;;;;21.60;13.10;;;;;;;-144.31;100.00;58022.63;5009943;28;20049;-53
2023/01/29 14:43:03;;;;;;;22.38;13.30;;;;;;;-144.31;100.00;58022.63;5011940;28;20120;-58
2023/01/29 14:46:31;;;;;;;21.65;12.98;;;;;;;-144.31;100.00;58022.63;5011048;28;20053;-57
2023/01/29 14:49:56;;;;;;;20.75;12.85;;;;;;;-144.31;100.00;58022.63;5009991;28;20065;-57
2023/01/29 14:53:26;;;;;;;17.10;12.02;;;;;;;-144.31;100.00;58022.63;5018132;28;20045;-56
2023/01/29 14:57:04;;;;;;;17.80;11.80;;;;;;;-144.31;100.00;58022.63;5011974;28;20574;-54
2023/01/29 15:00:35;;;;;;;21.05;12.30;;;;;;;-144.31;100.00;58022.63;5017548;28;20081;-59
2023/01/29 15:04:14;;;;;;;19.10;11.93;;;;;;;-144.31;100.00;58022.63;5014225;28;20041;-55
2023/01/29 15:07:59;;;;;;;18.23;11.60;;;;;;;-144.31;100.00;58022.63;5012012;28;20092;-53
2023/01/29 15:11:42;;;;;;;17.70;11.37;;;;;;;-144.31;100.00;58022.63;5012822;28;20049;-57
2023/01/29 15:15:19;;;;;;;17.98;12.05;;;;;;;-144.31;100.00;58022.63;5015671;28;20112;-55
2023/01/29 15:18:42;;;;;;;;;;;;;;;-144.31;100.00;58022.63;5015054;28;20033;-56
2023/01/29 15:22:15;;;;;;;18.65;12.20;;;;;;;-144.31;100.00;58022.63;5014698;28;19921;-53
2023/01/29 15:25:47;;;;;;;19.77;11.75;;;;;;;-144.31;100.00;58022.63;5012882;28;20129;-52
2023/01/29 15:29:21;;;;;;;22.27;12.60;;;;;;;-144.31;100.00;58022.63;5010620;28;20597;-52
2023/01/29 15:32:45;;;;;;;21.88;12.95;;;;;;;-144.31;100.00;58022.63;5015887;28;20045;-56
2023/01/29 15:36:19;;;;;;;20.35;13.13;;;;;;;-144.31;100.00;58022.63;5014774;28;20038;-54
2023/01/29 15:39:43;;;;;;;21.30;12.23;;;;;;;-144.31;100.00;58022.63;5013585;28;20038;-53
2023/01/29 15:43:18;;;;;;;19.95;12.57;;;;;;;-144.31;100.00;58022.63;5014071;28;20119;-54
2023/01/29 15:46:44;;;;;;;22.80;13.93;;;;;;;-144.31;100.00;58022.63;5011896;28;20041;-57
2023/01/29 15:50:11;;;;;;;;;;;;;;;-144.31;100.00;58022.63;5016521;28;20144;-53
2023/01/29 15:53:39;;;;;;;21.00;13.02;;;;;;;-144.31;100.00;58022.63;5014105;28;19925;-58
2023/01/29 15:57:16;;;;;;;19.30;11.93;;;;;;;-144.31;100.00;58022.63;5018746;28;20042;-56
2023/01/29 16:00:48;;;;;;;23.88;16.42;;;;;;;-144.31;100.00;58022.63;5013288;28;20212;-59
2023/01/29 16:04:16;;;;;;;28.42;17.67;;;;;;;-144.31;100.00;58022.63;5021136;28;20129;-55
2023/01/29 16:07:41;;;;;;;24.77;14.20;;;;;;;-144.31;100.00;58022.63;5021702;28;20113;-54
2023/01/29 16:11:11;;;;;;;24.50;14.00;;;;;;;-144.31;100.00;58022.63;5008932;28;20108;-57
2023/01/29 16:14:39;;;;;;;102.55;31.77;;;;;;;-144.31;100.00;58022.63;5014053;28;20046;-58
2023/01/29 16:18:28;;;;;;;27.40;15.15;;;;;;;-144.31;100.00;58022.63;5019731;28;20135;-56
2023/01/29 16:21:55;;;;;;;23.38;12.35;;;;;;;-144.31;100.00;58022.63;5016031;28;20479;-54
2023/01/29 16:25:20;;;;;;;24.85;14.00;;;;;;;-144.31;100.00;58022.63;5014662;28;20045;-56